createdAt,value
2022-10-10T00:01:18.348Z,96569.28
2022-10-10T00:03:45.671Z,96524.38
2022-10-10T00:06:13.807Z,96571.31
2022-10-10T00:08:40.423Z,96527.19
2022-10-10T00:11:07.668Z,96571.00
2022-10-10T00:13:34.969Z,96523.16
2022-10-10T00:16:02.038Z,96532.78
2022-10-10T00:18:29.326Z,96535.56
2022-10-10T00:20:56.085Z,96515.50
2022-10-10T00:23:22.744Z,96565.53
2022-10-10T00:25:50.496Z,96568.34
2022-10-10T00:28:17.707Z,96558.72
2022-10-10T00:30:45.299Z,96556.03
2022-10-10T00:33:12.450Z,96519.53
2022-10-10T00:35:39.142Z,96557.59
2022-10-10T00:38:05.774Z,96559.59
2022-10-10T00:40:32.846Z,96560.06
2022-10-10T00:43:00.191Z,96549.53
2022-10-10T00:45:42.847Z,96534.72
2022-10-10T00:48:26.119Z,96491.41
2022-10-10T00:50:58.302Z,96550.25
2022-10-10T00:53:38.338Z,96516.44
2022-10-10T00:56:06.157Z,96549.63
2022-10-10T00:58:34.542Z,96553.22
2022-10-10T01:01:01.404Z,96517.31
2022-10-10T01:03:28.149Z,96496.03
2022-10-10T01:05:54.797Z,96536.09
2022-10-10T01:08:21.960Z,96512.03
2022-10-10T01:11:14.529Z,96548.34
2022-10-10T01:13:52.023Z,96541.53
2022-10-10T01:16:29.821Z,96515.13
2022-10-10T01:19:35.450Z,96536.28
2022-10-10T01:22:23.299Z,96534.09
2022-10-10T01:25:38.511Z,96521.03
2022-10-10T01:28:13.438Z,96527.53
2022-10-10T01:30:41.423Z,96456.97
2022-10-10T01:33:16.232Z,96519.34
2022-10-10T01:35:48.874Z,96520.63
2022-10-10T01:38:36.203Z,96512.06
2022-10-10T01:41:02.743Z,96517.31
2022-10-10T01:43:30.546Z,96506.28
2022-10-10T01:45:57.611Z,96501.78
2022-10-10T01:48:31.803Z,96479.28
2022-10-10T01:51:04.495Z,96512.50
2022-10-10T01:53:43.507Z,96489.56
2022-10-10T01:56:19.155Z,96490.63
2022-10-10T01:58:59.949Z,96481.13
2022-10-10T02:01:47.226Z,96484.59
2022-10-10T02:04:21.925Z,96452.94
2022-10-10T02:06:55.383Z,96473.25
2022-10-10T02:09:29.806Z,96451.72
2022-10-10T02:12:00.137Z,96458.22
2022-10-10T02:14:33.787Z,96497.19
2022-10-10T02:17:02.905Z,96454.50
2022-10-10T02:19:30.656Z,96456.31
2022-10-10T02:21:58.301Z,96454.81
2022-10-10T02:24:25.303Z,96490.03
2022-10-10T02:27:18.529Z,96468.91
2022-10-10T02:29:47.632Z,96430.56
2022-10-10T02:32:24.497Z,96443.28
2022-10-10T02:34:55.510Z,96475.25
2022-10-10T02:37:22.697Z,96428.06
2022-10-10T02:39:53.802Z,96460.66
2022-10-10T02:42:22.740Z,96442.16
2022-10-10T02:44:49.463Z,96416.19
2022-10-10T02:47:16.645Z,96450.34
2022-10-10T02:49:43.787Z,96437.34
2022-10-10T02:52:13.105Z,96438.44
2022-10-10T02:54:39.705Z,96435.78
2022-10-10T02:57:06.618Z,96436.81
2022-10-10T02:59:33.282Z,96459.38
2022-10-10T03:01:59.928Z,96438.91
2022-10-10T03:04:26.801Z,96456.13
2022-10-10T03:06:53.756Z,96417.25
2022-10-10T03:09:20.573Z,96457.31
2022-10-10T03:11:47.123Z,96450.19
2022-10-10T03:14:13.661Z,96414.47
2022-10-10T03:16:40.230Z,96454.47
2022-10-10T03:19:08.466Z,96462.91
2022-10-10T03:21:36.032Z,96447.94
2022-10-10T03:24:02.766Z,96448.09
2022-10-10T03:26:29.334Z,96458.78
2022-10-10T03:28:55.946Z,96437.84
2022-10-10T03:31:22.538Z,96477.91
2022-10-10T03:33:49.174Z,96459.56
2022-10-10T03:36:15.925Z,96458.63
2022-10-10T03:38:42.492Z,96439.22
2022-10-10T03:41:09.175Z,96443.88
2022-10-10T03:43:35.789Z,96457.19
2022-10-10T03:46:02.446Z,96446.19
2022-10-10T03:48:29.019Z,96437.34
2022-10-10T03:50:55.625Z,96400.22
2022-10-10T03:53:22.704Z,96444.06
2022-10-10T03:55:49.404Z,96439.28
2022-10-10T03:58:18.917Z,96473.09
2022-10-10T04:00:59.852Z,96459.28
2022-10-10T04:03:27.055Z,96459.34
2022-10-10T04:05:55.028Z,96453.06
2022-10-10T04:08:22.033Z,96407.75
2022-10-10T04:10:50.110Z,96442.50
2022-10-10T04:13:17.355Z,96438.31
2022-10-10T04:15:44.502Z,96459.09
2022-10-10T04:18:11.478Z,96437.94
2022-10-10T04:20:38.226Z,96430.59
2022-10-10T04:23:04.904Z,96439.91
2022-10-10T04:25:31.528Z,96408.06
2022-10-10T04:28:01.009Z,96440.56
2022-10-10T04:30:32.795Z,96421.88
2022-10-10T04:32:59.558Z,96420.97
2022-10-10T04:35:26.229Z,96374.56
2022-10-10T04:37:53.452Z,96436.59
2022-10-10T04:40:25.496Z,96419.72
2022-10-10T04:42:53.493Z,96439.53
2022-10-10T04:45:20.262Z,96416.91
2022-10-10T04:47:46.860Z,96450.25
2022-10-10T04:50:13.452Z,96452.38
2022-10-10T04:52:40.060Z,96419.31
2022-10-10T04:55:07.010Z,96415.50
2022-10-10T04:57:33.615Z,96424.44
2022-10-10T05:00:00.209Z,96454.66
2022-10-10T05:02:26.836Z,96446.13
2022-10-10T05:04:53.441Z,96465.75
2022-10-10T05:07:20.053Z,96472.56
2022-10-10T05:09:46.706Z,96416.88
2022-10-10T05:12:13.279Z,96414.06
2022-10-10T05:14:41.746Z,96395.00
2022-10-10T05:17:11.273Z,96429.09
2022-10-10T05:19:37.875Z,96426.16
2022-10-10T05:22:04.463Z,96426.59
2022-10-10T05:24:30.992Z,96471.19
2022-10-10T05:26:57.632Z,96422.69
2022-10-10T05:29:24.356Z,96448.72
2022-10-10T05:31:51.086Z,96433.84
2022-10-10T05:34:17.871Z,96450.00
2022-10-10T05:36:44.469Z,96418.72
2022-10-10T05:39:11.095Z,96434.84
2022-10-10T05:41:37.691Z,96458.06
2022-10-10T05:44:04.297Z,96438.44
2022-10-10T05:46:30.965Z,96435.25
2022-10-10T05:48:57.614Z,96421.16
2022-10-10T05:51:24.463Z,96447.56
2022-10-10T05:53:51.111Z,96450.19
2022-10-10T05:56:17.747Z,96423.97
2022-10-10T05:58:45.288Z,96467.47
2022-10-10T06:01:12.477Z,96411.63
2022-10-10T06:03:39.065Z,96379.09
2022-10-10T06:06:07.089Z,96478.13
2022-10-10T06:08:33.956Z,96454.44
2022-10-10T06:11:07.891Z,96483.19
2022-10-10T06:13:34.783Z,96434.31
2022-10-10T06:16:01.435Z,96481.59
2022-10-10T06:18:28.143Z,96463.38
2022-10-10T06:20:55.063Z,96443.72
2022-10-10T06:23:21.749Z,96444.25
2022-10-10T06:25:51.860Z,96486.50
2022-10-10T06:28:18.532Z,96424.53
2022-10-10T06:30:48.514Z,96490.25
2022-10-10T06:33:16.087Z,96467.91
2022-10-10T06:35:44.253Z,96462.13
2022-10-10T06:38:11.743Z,96497.66
2022-10-10T06:40:39.231Z,96497.34
2022-10-10T06:43:12.021Z,96432.56
2022-10-10T06:45:40.753Z,96492.41
2022-10-10T06:48:08.426Z,96484.66
2022-10-10T06:50:35.691Z,96457.84
2022-10-10T06:53:02.386Z,96481.72
2022-10-10T06:55:28.986Z,96503.16
2022-10-10T06:57:55.772Z,96503.34
2022-10-10T07:00:22.369Z,96471.78
2022-10-10T07:02:49.340Z,96490.59
2022-10-10T07:05:18.062Z,96504.31
2022-10-10T07:07:45.856Z,96503.84
2022-10-10T07:10:14.796Z,96502.53
2022-10-10T07:12:44.765Z,96465.19
2022-10-10T07:15:12.427Z,96462.66
2022-10-10T07:17:39.115Z,96452.13
2022-10-10T07:20:06.204Z,96496.22
2022-10-10T07:22:33.618Z,96513.69
2022-10-10T07:25:00.275Z,96442.38
2022-10-10T07:27:27.080Z,96515.19
2022-10-10T07:29:53.666Z,96452.84
2022-10-10T07:32:20.413Z,96466.66
2022-10-10T07:34:46.979Z,96535.72
2022-10-10T07:37:13.542Z,96493.50
2022-10-10T07:39:40.211Z,96403.03
2022-10-10T07:42:06.825Z,96531.44
2022-10-10T07:44:34.678Z,96534.88
2022-10-10T07:47:01.924Z,96489.75
2022-10-10T07:49:28.815Z,96524.28
2022-10-10T07:52:00.563Z,96517.88
2022-10-10T07:54:29.149Z,96550.66
2022-10-10T07:56:56.178Z,96517.47
2022-10-10T07:59:23.256Z,96478.91
2022-10-10T08:01:50.404Z,96511.09
2022-10-10T08:04:17.339Z,96502.09
2022-10-10T08:06:44.329Z,96531.06
2022-10-10T08:09:11.309Z,96489.19
2022-10-10T08:11:38.106Z,96538.41
2022-10-10T08:14:04.768Z,96517.00
2022-10-10T08:16:31.551Z,96526.06
2022-10-10T08:18:58.445Z,96490.16
2022-10-10T08:21:25.330Z,96521.88
2022-10-10T08:23:51.958Z,96492.38
2022-10-10T08:26:20.012Z,96478.44
2022-10-10T08:28:48.599Z,96527.97
2022-10-10T08:31:18.235Z,96549.84
2022-10-10T08:33:46.573Z,96484.84
2022-10-10T08:36:16.122Z,96477.25
2022-10-10T08:38:43.462Z,96529.06
2022-10-10T08:41:35.020Z,96543.97
2022-10-10T08:44:40.675Z,96543.31
2022-10-10T08:47:15.516Z,96537.28
2022-10-10T08:50:03.262Z,96547.91
2022-10-10T08:53:02.221Z,96546.94
2022-10-10T08:55:34.697Z,96544.16
2022-10-10T08:58:14.603Z,96501.94
2022-10-10T09:01:13.658Z,96528.31
2022-10-10T09:03:51.113Z,96538.25
2022-10-10T09:06:42.689Z,96541.72
2022-10-10T09:09:28.109Z,96548.78
2022-10-10T09:12:15.423Z,96522.72
2022-10-10T09:15:20.342Z,96552.53
2022-10-10T09:18:04.746Z,96540.84
2022-10-10T09:21:06.832Z,96546.97
2022-10-10T09:23:45.391Z,96547.88
2022-10-10T09:26:14.594Z,96502.09
2022-10-10T09:28:49.146Z,96502.25
2022-10-10T09:31:28.384Z,96541.81
2022-10-10T09:34:05.295Z,96497.19
2022-10-10T09:36:35.894Z,96516.31
2022-10-10T09:39:38.803Z,96542.41
2022-10-10T09:42:13.772Z,96478.81
2022-10-10T09:44:42.576Z,96537.38
2022-10-10T09:47:17.239Z,96519.22
2022-10-10T09:49:44.485Z,96456.16
2022-10-10T09:52:25.379Z,96541.72
2022-10-10T09:54:57.267Z,96529.31
2022-10-10T09:57:28.502Z,96496.25
2022-10-10T09:59:55.160Z,96477.56
2022-10-10T10:02:24.842Z,96553.41
2022-10-10T10:04:52.637Z,96493.97
2022-10-10T10:07:20.961Z,96537.97
2022-10-10T10:09:50.373Z,96515.00
2022-10-10T10:12:23.286Z,96510.56
2022-10-10T10:14:53.058Z,96549.78
2022-10-10T10:17:23.288Z,96535.88
2022-10-10T10:19:50.107Z,96550.34
2022-10-10T10:22:26.362Z,96550.56
2022-10-10T10:24:54.358Z,96555.88
2022-10-10T10:27:23.940Z,96555.63
2022-10-10T10:29:55.559Z,96548.13
2022-10-10T10:32:54.854Z,96522.94
2022-10-10T10:35:44.525Z,96525.16
2022-10-10T10:38:38.297Z,96493.66
2022-10-10T10:41:23.473Z,96561.69
2022-10-10T10:44:10.232Z,96529.44
2022-10-10T10:47:10.041Z,96557.16
2022-10-10T10:49:40.511Z,96551.91
2022-10-10T10:52:21.616Z,96544.31
2022-10-10T10:55:22.575Z,96541.00
2022-10-10T10:58:58.384Z,96554.06
2022-10-10T11:01:20.932Z,96528.44
2022-10-10T11:05:22.784Z,96530.78
2022-10-10T11:07:33.830Z,96521.28
2022-10-10T11:10:38.804Z,96552.28
2022-10-10T11:13:40.610Z,96525.63
2022-10-10T11:16:49.114Z,96556.72
2022-10-10T11:19:42.496Z,96558.59
2022-10-10T11:22:14.664Z,96554.09
2022-10-10T11:24:56.433Z,96560.78
2022-10-10T11:27:46.808Z,96556.31
2022-10-10T11:30:35.824Z,96533.56
2022-10-10T11:33:11.568Z,96562.94
2022-10-10T11:36:10.527Z,96562.56
2022-10-10T11:38:45.445Z,96557.91
2022-10-10T11:41:27.104Z,96539.34
2022-10-10T11:44:09.041Z,96554.94
2022-10-10T11:47:06.840Z,96553.22
2022-10-10T11:49:44.982Z,96520.97
2022-10-10T11:52:38.440Z,96539.50
2022-10-10T11:55:11.090Z,96546.91
2022-10-10T11:57:46.989Z,96508.56
2022-10-10T12:00:16.569Z,96548.72
2022-10-10T12:02:45.432Z,96527.28
2022-10-10T12:05:17.997Z,96535.38
2022-10-10T12:07:56.840Z,96543.75
2022-10-10T12:10:42.685Z,96537.13
2022-10-10T12:13:31.544Z,96541.59
2022-10-10T12:16:03.528Z,96534.81
2022-10-10T12:18:45.031Z,96485.84
2022-10-10T12:21:17.193Z,96506.16
2022-10-10T12:23:48.369Z,96523.31
2022-10-10T12:26:17.694Z,96433.31
2022-10-10T12:29:05.120Z,96517.22
2022-10-10T12:31:33.608Z,96451.72
2022-10-10T12:34:02.497Z,96535.50
2022-10-10T12:36:29.022Z,96540.56
2022-10-10T12:39:01.952Z,96532.66
2022-10-10T12:41:47.732Z,96536.31
2022-10-10T12:44:35.718Z,96529.88
2022-10-10T12:47:14.567Z,96531.13
2022-10-10T12:49:59.837Z,96490.13
2022-10-10T12:52:47.316Z,96499.41
2022-10-10T12:55:32.514Z,96505.91
2022-10-10T12:58:03.519Z,96506.84
2022-10-10T13:00:41.081Z,96483.59
2022-10-10T13:03:16.345Z,96500.13
2022-10-10T13:05:43.665Z,96465.19
2022-10-10T13:08:18.285Z,96511.06
2022-10-10T13:11:12.069Z,96504.41
2022-10-10T13:13:40.710Z,96497.34
2022-10-10T13:16:15.794Z,96503.06
2022-10-10T13:18:53.230Z,96498.25
2022-10-10T13:21:26.835Z,96482.22
2022-10-10T13:24:03.359Z,96475.00
2022-10-10T13:26:49.265Z,96448.41
2022-10-10T13:29:36.733Z,96456.00
2022-10-10T13:32:09.116Z,96485.03
2022-10-10T13:34:40.325Z,96495.16
2022-10-10T13:37:07.414Z,96466.56
2022-10-10T13:39:37.818Z,96435.56
2022-10-10T13:42:06.066Z,96455.56
2022-10-10T13:44:48.003Z,96401.75
2022-10-10T13:47:45.934Z,96500.38
2022-10-10T13:50:26.794Z,96513.13
2022-10-10T13:53:44.796Z,96509.06
2022-10-10T13:56:14.470Z,96503.50
2022-10-10T13:58:49.632Z,96494.44
2022-10-10T14:01:33.683Z,96474.53
2022-10-10T14:04:12.698Z,96489.59
2022-10-10T14:06:41.653Z,96487.50
2022-10-10T14:09:37.324Z,96462.16
2022-10-10T14:12:06.964Z,96471.09
2022-10-10T14:14:46.250Z,96496.25
2022-10-10T14:17:13.550Z,96460.44
2022-10-10T14:19:40.565Z,96465.81
2022-10-10T14:22:07.271Z,96465.94
2022-10-10T14:24:34.129Z,96495.06
2022-10-10T14:27:20.111Z,96474.69
2022-10-10T14:29:47.234Z,96477.06
2022-10-10T14:32:14.683Z,96432.78
2022-10-10T14:34:41.977Z,96497.91
2022-10-10T14:37:25.809Z,96482.19
2022-10-10T14:39:54.447Z,96490.69
2022-10-10T14:42:22.753Z,96448.50
2022-10-10T14:44:49.620Z,96488.28
2022-10-10T14:47:21.729Z,96463.50
2022-10-10T14:49:48.889Z,96470.66
2022-10-10T14:52:15.986Z,96417.72
2022-10-10T14:54:42.674Z,96482.38
2022-10-10T14:57:12.178Z,96448.75
2022-10-10T14:59:47.143Z,96413.97
2022-10-10T15:02:15.746Z,96490.72
2022-10-10T15:04:42.403Z,96489.28
2022-10-10T15:07:14.459Z,96417.59
2022-10-10T15:10:27.523Z,96485.50
2022-10-10T15:12:34.237Z,96469.66
2022-10-10T15:15:04.808Z,96488.34
2022-10-10T15:17:34.319Z,96446.31
2022-10-10T15:20:02.391Z,96483.94
2022-10-10T15:22:30.649Z,96488.69
2022-10-10T15:24:57.587Z,96492.41
2022-10-10T15:27:24.742Z,96464.66
2022-10-10T15:29:51.535Z,96419.31
2022-10-10T15:32:18.192Z,96468.38
2022-10-10T15:34:48.186Z,96498.78
2022-10-10T15:37:14.976Z,96444.34
2022-10-10T15:39:44.545Z,96439.22
2022-10-10T15:42:17.277Z,96423.91
2022-10-10T15:44:46.643Z,96484.78
2022-10-10T15:47:18.170Z,96483.94
2022-10-10T15:49:45.032Z,96481.69
2022-10-10T15:52:11.799Z,96512.59
2022-10-10T15:54:38.625Z,96508.28
2022-10-10T15:57:05.592Z,96496.34
2022-10-10T15:59:32.543Z,96498.69
2022-10-10T16:01:59.220Z,96489.53
2022-10-10T16:04:26.546Z,96517.25
2022-10-10T16:07:20.046Z,96479.78
2022-10-10T16:09:41.115Z,96483.28
2022-10-10T16:12:08.696Z,96524.66
2022-10-10T16:14:35.703Z,96534.69
2022-10-10T16:17:02.435Z,96498.16
2022-10-10T16:19:29.308Z,96505.09
2022-10-10T16:21:56.149Z,96499.88
2022-10-10T16:24:22.854Z,96504.25
2022-10-10T16:26:49.530Z,96506.22
2022-10-10T16:29:18.556Z,96505.97
2022-10-10T16:31:45.494Z,96462.59
2022-10-10T16:34:15.129Z,96483.69
2022-10-10T16:36:42.408Z,96525.31
2022-10-10T16:39:09.100Z,96517.78
2022-10-10T16:41:47.895Z,96520.94
2022-10-10T16:44:16.286Z,96535.75
2022-10-10T16:46:43.183Z,96535.81
2022-10-10T16:49:12.665Z,96540.03
2022-10-10T16:51:39.365Z,96541.47
2022-10-10T16:54:06.472Z,96541.38
2022-10-10T16:56:34.125Z,96536.31
2022-10-10T16:59:01.511Z,96541.59
2022-10-10T17:01:28.500Z,96531.31
2022-10-10T17:03:55.278Z,96512.66
2022-10-10T17:06:23.444Z,96498.28
2022-10-10T17:08:52.210Z,96553.06
2022-10-10T17:11:21.538Z,96553.75
2022-10-10T17:13:49.431Z,96533.44
2022-10-10T17:16:59.700Z,96506.44
2022-10-10T17:19:09.271Z,96548.53
2022-10-10T17:21:36.335Z,96514.56
2022-10-10T17:24:03.114Z,96553.69
2022-10-10T17:26:29.809Z,96552.16
2022-10-10T17:28:58.235Z,96552.16
2022-10-10T17:31:26.055Z,96560.09
2022-10-10T17:33:54.515Z,96509.34
2022-10-10T17:36:23.990Z,96542.81
2022-10-10T17:38:51.398Z,96533.63
2022-10-10T17:41:19.889Z,96529.28
2022-10-10T17:43:46.863Z,96484.19
2022-10-10T17:46:33.895Z,96522.84
2022-10-10T17:49:01.571Z,96553.94
2022-10-10T17:51:28.284Z,96522.19
2022-10-10T17:53:54.962Z,96515.94
2022-10-10T17:56:22.595Z,96519.09
2022-10-10T17:58:50.616Z,96554.47
2022-10-10T18:01:19.442Z,96564.59
2022-10-10T18:03:47.081Z,96562.53
2022-10-10T18:06:16.752Z,96495.38
2022-10-10T18:08:43.450Z,96529.19
2022-10-10T18:11:14.586Z,96558.44
2022-10-10T18:13:41.327Z,96565.75
2022-10-10T18:16:10.796Z,96578.81
2022-10-10T18:18:39.089Z,96571.53
2022-10-10T18:21:08.067Z,96534.66
2022-10-10T18:23:35.297Z,96570.78
2022-10-10T18:26:04.450Z,96571.72
2022-10-10T18:28:32.943Z,96549.38
2022-10-10T18:31:00.248Z,96585.84
2022-10-10T18:33:27.170Z,96550.31
2022-10-10T18:35:53.805Z,96574.34
2022-10-10T18:38:20.446Z,96576.53
2022-10-10T18:40:47.300Z,96548.81
2022-10-10T18:43:13.998Z,96577.97
2022-10-10T18:45:40.601Z,96545.41
2022-10-10T18:48:07.368Z,96551.00
2022-10-10T18:50:34.102Z,96581.84
2022-10-10T18:53:00.787Z,96569.31
2022-10-10T18:55:30.410Z,96562.72
2022-10-10T18:57:57.881Z,96584.69
2022-10-10T19:00:27.429Z,96477.56
2022-10-10T19:02:54.082Z,96577.59
2022-10-10T19:05:20.808Z,96562.25
2022-10-10T19:07:47.444Z,96545.19
2022-10-10T19:10:14.108Z,96552.34
2022-10-10T19:12:44.005Z,96573.78
2022-10-10T19:15:14.890Z,96551.69
2022-10-10T19:17:41.568Z,96583.69
2022-10-10T19:20:08.681Z,96524.56
2022-10-10T19:22:35.359Z,96563.66
2022-10-10T19:25:02.970Z,96567.72
2022-10-10T19:27:29.631Z,96586.81
2022-10-10T19:29:56.237Z,96551.72
2022-10-10T19:32:22.882Z,96549.56
2022-10-10T19:34:49.552Z,96559.63
2022-10-10T19:37:16.274Z,96587.88
2022-10-10T19:39:45.938Z,96579.34
2022-10-10T19:42:12.596Z,96596.88
2022-10-10T19:44:39.271Z,96554.97
2022-10-10T19:47:05.848Z,96573.13
2022-10-10T19:49:32.991Z,96600.75
2022-10-10T19:51:59.696Z,96533.25
2022-10-10T19:54:26.689Z,96558.25
2022-10-10T19:56:53.330Z,96609.28
2022-10-10T19:59:19.961Z,96560.13
2022-10-10T20:01:46.628Z,96580.72
2022-10-10T20:04:13.330Z,96617.50
2022-10-10T20:06:43.329Z,96575.25
2022-10-10T20:09:11.267Z,96609.44
2022-10-10T20:11:38.596Z,96614.13
2022-10-10T20:14:05.331Z,96558.63
2022-10-10T20:16:32.278Z,96589.75
2022-10-10T20:18:59.247Z,96623.56
2022-10-10T20:21:31.367Z,96621.16
2022-10-10T20:24:01.160Z,96624.78
2022-10-10T20:26:28.497Z,96617.75
2022-10-10T20:28:56.578Z,96585.91
2022-10-10T20:31:25.853Z,96609.56
2022-10-10T20:33:54.547Z,96601.69
2022-10-10T20:36:22.582Z,96640.31
2022-10-10T20:38:58.602Z,96613.72
2022-10-10T20:41:27.693Z,96648.31
2022-10-10T20:43:59.566Z,96597.56
2022-10-10T20:46:29.003Z,96607.19
2022-10-10T20:48:56.942Z,96651.09
2022-10-10T20:51:23.989Z,96604.94
2022-10-10T20:54:00.096Z,96656.13
2022-10-10T20:56:28.142Z,96571.69
2022-10-10T20:58:54.809Z,96626.69
2022-10-10T21:01:24.774Z,96650.19
2022-10-10T21:03:51.570Z,96638.41
2022-10-10T21:06:23.787Z,96638.00
2022-10-10T21:08:52.306Z,96642.41
2022-10-10T21:11:19.735Z,96620.00
2022-10-10T21:13:56.063Z,96645.47
2022-10-10T21:16:29.391Z,96651.00
2022-10-10T21:18:58.497Z,96595.72
2022-10-10T21:21:27.149Z,96574.56
2022-10-10T21:23:56.248Z,96633.66
2022-10-10T21:26:25.117Z,96657.69
2022-10-10T21:28:53.242Z,96664.22
2022-10-10T21:31:22.568Z,96661.91
2022-10-10T21:33:49.583Z,96673.34
2022-10-10T21:36:17.716Z,96680.31
2022-10-10T21:38:44.787Z,96670.00
2022-10-10T21:41:16.309Z,96677.09
2022-10-10T21:43:44.654Z,96679.84
2022-10-10T21:46:13.796Z,96631.59
2022-10-10T21:48:40.568Z,96622.34
2022-10-10T21:51:07.368Z,96692.72
2022-10-10T21:53:33.997Z,96658.25
2022-10-10T21:56:05.098Z,96671.13
2022-10-10T21:58:35.077Z,96672.50
2022-10-10T22:01:34.436Z,96685.03
2022-10-10T22:04:02.689Z,96688.53
2022-10-10T22:06:30.016Z,96680.19
2022-10-10T22:08:58.418Z,96696.63
2022-10-10T22:11:27.222Z,96615.59
2022-10-10T22:13:53.951Z,96670.84
2022-10-10T22:16:21.068Z,96695.28
2022-10-10T22:18:47.811Z,96641.84
2022-10-10T22:21:16.490Z,96686.97
2022-10-10T22:23:44.708Z,96646.13
2022-10-10T22:26:14.181Z,96653.91
2022-10-10T22:28:41.012Z,96665.59
2022-10-10T22:31:11.124Z,96661.19
2022-10-10T22:33:37.919Z,96663.44
2022-10-10T22:36:05.743Z,96681.41
2022-10-10T22:38:32.977Z,96673.25
2022-10-10T22:40:59.797Z,96671.88
2022-10-10T22:43:27.283Z,96652.03
2022-10-10T22:45:54.708Z,96713.97
2022-10-10T22:48:21.495Z,96663.81
2022-10-10T22:50:48.120Z,96686.69
2022-10-10T22:53:14.791Z,96682.03
2022-10-10T22:55:41.532Z,96665.75
2022-10-10T22:58:08.167Z,96682.75
2022-10-10T23:00:34.919Z,96638.53
2022-10-10T23:03:01.626Z,96705.75
2022-10-10T23:05:28.355Z,96670.25
2022-10-10T23:07:54.988Z,96679.31
2022-10-10T23:10:21.824Z,96713.53
2022-10-10T23:12:48.614Z,96712.56
2022-10-10T23:15:15.523Z,96670.84
2022-10-10T23:17:42.120Z,96705.16
2022-10-10T23:20:09.378Z,96676.44
2022-10-10T23:22:36.473Z,96676.91
2022-10-10T23:25:03.883Z,96732.66
2022-10-10T23:27:30.659Z,96720.56
2022-10-10T23:29:57.275Z,96709.41
2022-10-10T23:32:26.878Z,96734.34
2022-10-10T23:34:53.791Z,96683.19
2022-10-10T23:37:20.559Z,96731.06
2022-10-10T23:39:47.289Z,96736.00
2022-10-10T23:42:14.155Z,96707.88
2022-10-10T23:44:40.789Z,96722.06
2022-10-10T23:47:07.633Z,96755.94
2022-10-10T23:49:34.362Z,96697.09
2022-10-10T23:52:01.004Z,96704.00
2022-10-10T23:54:27.655Z,96725.97
2022-10-10T23:56:54.350Z,96695.88
2022-10-10T23:59:20.964Z,96704.06
